sensor_id;sensor_type;location;lat;lon;timestamp;pressure;altitude;pressure_sealevel;temperature
30001;BMP280;16845;48.670;9.000;2023-07-30T00:00:36;95188.31;;;17.80
30001;BMP280;16845;48.670;9.000;2023-07-30T00:03:03;95180.78;;;17.78
30001;BMP280;16845;48.670;9.000;2023-07-30T00:05:29;95184.94;;;17.79
30001;BMP280;16845;48.670;9.000;2023-07-30T00:07:56;95182.59;;;17.76
30001;BMP280;16845;48.670;9.000;2023-07-30T00:10:24;95184.31;;;17.76
30001;BMP280;16845;48.670;9.000;2023-07-30T00:12:50;95180.78;;;17.78
30001;BMP280;16845;48.670;9.000;2023-07-30T00:15:17;95182.19;;;17.82
30001;BMP280;16845;48.670;9.000;2023-07-30T00:17:43;95183.84;;;17.83
30001;BMP280;16845;48.670;9.000;2023-07-30T00:20:10;95184.00;;;17.94
30001;BMP280;16845;48.670;9.000;2023-07-30T00:22:37;95186.00;;;17.89
30001;BMP280;16845;48.670;9.000;2023-07-30T00:25:04;95186.34;;;17.97
30001;BMP280;16845;48.670;9.000;2023-07-30T00:27:32;95183.75;;;17.85
30001;BMP280;16845;48.670;9.000;2023-07-30T00:29:58;95185.28;;;17.87
30001;BMP280;16845;48.670;9.000;2023-07-30T00:32:25;95183.03;;;17.83
30001;BMP280;16845;48.670;9.000;2023-07-30T00:34:52;95196.91;;;17.77
30001;BMP280;16845;48.670;9.000;2023-07-30T00:37:18;95200.44;;;17.75
30001;BMP280;16845;48.670;9.000;2023-07-30T00:39:45;95192.81;;;17.75
30001;BMP280;16845;48.670;9.000;2023-07-30T00:42:11;95193.53;;;17.77
30001;BMP280;16845;48.670;9.000;2023-07-30T00:44:39;95189.06;;;17.68
30001;BMP280;16845;48.670;9.000;2023-07-30T00:47:05;95188.38;;;17.78
30001;BMP280;16845;48.670;9.000;2023-07-30T00:49:32;95192.50;;;17.67
30001;BMP280;16845;48.670;9.000;2023-07-30T00:51:59;95197.66;;;17.65
30001;BMP280;16845;48.670;9.000;2023-07-30T00:54:25;95199.94;;;17.56
30001;BMP280;16845;48.670;9.000;2023-07-30T00:56:52;95207.28;;;17.46
30001;BMP280;16845;48.670;9.000;2023-07-30T00:59:20;95207.28;;;17.46
30001;BMP280;16845;48.670;9.000;2023-07-30T01:01:48;95213.78;;;17.64
30001;BMP280;16845;48.670;9.000;2023-07-30T01:04:17;95211.97;;;17.66
30001;BMP280;16845;48.670;9.000;2023-07-30T01:06:44;95210.69;;;17.59
30001;BMP280;16845;48.670;9.000;2023-07-30T01:09:10;95204.19;;;17.55
30001;BMP280;16845;48.670;9.000;2023-07-30T01:11:38;95204.28;;;17.54
30001;BMP280;16845;48.670;9.000;2023-07-30T01:14:06;95208.91;;;17.61
30001;BMP280;16845;48.670;9.000;2023-07-30T01:16:33;95206.09;;;17.52
30001;BMP280;16845;48.670;9.000;2023-07-30T01:19:01;95213.63;;;17.53
30001;BMP280;16845;48.670;9.000;2023-07-30T01:21:29;95208.19;;;17.45
30001;BMP280;16845;48.670;9.000;2023-07-30T01:23:56;95218.72;;;17.39
30001;BMP280;16845;48.670;9.000;2023-07-30T01:26:24;95212.34;;;17.32
30001;BMP280;16845;48.670;9.000;2023-07-30T01:28:55;95215.31;;;17.25
30001;BMP280;16845;48.670;9.000;2023-07-30T01:31:25;95216.88;;;17.27
30001;BMP280;16845;48.670;9.000;2023-07-30T01:33:54;95218.41;;;17.30
30001;BMP280;16845;48.670;9.000;2023-07-30T01:36:21;95227.44;;;17.20
30001;BMP280;16845;48.670;9.000;2023-07-30T01:38:50;95228.34;;;17.19
30001;BMP280;16845;48.670;9.000;2023-07-30T01:41:17;95226.47;;;17.22
30001;BMP280;16845;48.670;9.000;2023-07-30T01:43:43;95229.19;;;17.19
30001;BMP280;16845;48.670;9.000;2023-07-30T01:46:10;95223.91;;;17.08
30001;BMP280;16845;48.670;9.000;2023-07-30T01:48:36;95224.09;;;17.19
30001;BMP280;16845;48.670;9.000;2023-07-30T01:51:03;95228.63;;;17.14
30001;BMP280;16845;48.670;9.000;2023-07-30T01:53:29;95233.16;;;17.23
30001;BMP280;16845;48.670;9.000;2023-07-30T01:55:57;95222.94;;;17.11
30001;BMP280;16845;48.670;9.000;2023-07-30T01:58:24;95219.75;;;17.07
30001;BMP280;16845;48.670;9.000;2023-07-30T02:00:50;95220.09;;;17.01
30001;BMP280;16845;48.670;9.000;2023-07-30T02:03:17;95215.94;;;17.14
30001;BMP280;16845;48.670;9.000;2023-07-30T02:05:44;95225.38;;;17.12
30001;BMP280;16845;48.670;9.000;2023-07-30T02:08:10;95209.97;;;17.01
30001;BMP280;16845;48.670;9.000;2023-07-30T02:10:37;95201.81;;;16.96
30001;BMP280;16845;48.670;9.000;2023-07-30T02:13:05;95205.28;;;16.95
30001;BMP280;16845;48.670;9.000;2023-07-30T02:15:31;95196.84;;;16.81
30001;BMP280;16845;48.670;9.000;2023-07-30T02:17:58;95199.28;;;16.96
30001;BMP280;16845;48.670;9.000;2023-07-30T02:20:24;95202.34;;;16.87
30001;BMP280;16845;48.670;9.000;2023-07-30T02:22:51;95218.47;;;16.86
30001;BMP280;16845;48.670;9.000;2023-07-30T02:25:17;95228.41;;;16.89
30001;BMP280;16845;48.670;9.000;2023-07-30T02:27:44;95228.97;;;16.80
30001;BMP280;16845;48.670;9.000;2023-07-30T02:30:12;95223.72;;;16.83
30001;BMP280;16845;48.670;9.000;2023-07-30T02:32:38;95225.88;;;16.75
30001;BMP280;16845;48.670;9.000;2023-07-30T02:35:05;95222.59;;;16.73
30001;BMP280;16845;48.670;9.000;2023-07-30T02:37:32;95225.31;;;16.70
30001;BMP280;16845;48.670;9.000;2023-07-30T02:39:58;95238.47;;;16.77
30001;BMP280;16845;48.670;9.000;2023-07-30T02:42:25;95227.09;;;16.68
30001;BMP280;16845;48.670;9.000;2023-07-30T02:44:51;95224.94;;;16.63
30001;BMP280;16845;48.670;9.000;2023-07-30T02:47:19;95220.41;;;16.67
30001;BMP280;16845;48.670;9.000;2023-07-30T02:49:46;95220.06;;;16.60
30001;BMP280;16845;48.670;9.000;2023-07-30T02:52:12;95223.50;;;16.59
30001;BMP280;16845;48.670;9.000;2023-07-30T02:54:39;95221.16;;;16.69
30001;BMP280;16845;48.670;9.000;2023-07-30T02:57:05;95228.75;;;16.69
30001;BMP280;16845;48.670;9.000;2023-07-30T02:59:32;95238.59;;;16.74
30001;BMP280;16845;48.670;9.000;2023-07-30T03:01:58;95230.72;;;16.64
30001;BMP280;16845;48.670;9.000;2023-07-30T03:04:26;95239.78;;;16.68
30001;BMP280;16845;48.670;9.000;2023-07-30T03:06:52;95237.81;;;16.73
30001;BMP280;16845;48.670;9.000;2023-07-30T03:09:19;95222.78;;;16.70
30001;BMP280;16845;48.670;9.000;2023-07-30T03:11:45;95234.69;;;16.68
30001;BMP280;16845;48.670;9.000;2023-07-30T03:14:12;95240.09;;;16.78
30001;BMP280;16845;48.670;9.000;2023-07-30T03:16:38;95228.47;;;16.74
30001;BMP280;16845;48.670;9.000;2023-07-30T03:19:05;95228.06;;;16.81
30001;BMP280;16845;48.670;9.000;2023-07-30T03:21:33;95234.50;;;16.87
30001;BMP280;16845;48.670;9.000;2023-07-30T03:23:59;95231.84;;;16.88
30001;BMP280;16845;48.670;9.000;2023-07-30T03:26:26;95218.13;;;16.92
30001;BMP280;16845;48.670;9.000;2023-07-30T03:28:52;95221.91;;;16.85
30001;BMP280;16845;48.670;9.000;2023-07-30T03:31:18;95228.41;;;16.89
30001;BMP280;16845;48.670;9.000;2023-07-30T03:33:45;95228.13;;;16.80
30001;BMP280;16845;48.670;9.000;2023-07-30T03:36:12;95227.78;;;16.86
30001;BMP280;16845;48.670;9.000;2023-07-30T03:38:40;95231.84;;;16.88
30001;BMP280;16845;48.670;9.000;2023-07-30T03:41:07;95227.16;;;16.82
30001;BMP280;16845;48.670;9.000;2023-07-30T03:43:34;95239.63;;;16.85
30001;BMP280;16845;48.670;9.000;2023-07-30T03:46:00;95243.81;;;16.86
30001;BMP280;16845;48.670;9.000;2023-07-30T03:48:27;95245.63;;;16.84
30001;BMP280;16845;48.670;9.000;2023-07-30T03:50:54;95246.53;;;16.83
30001;BMP280;16845;48.670;9.000;2023-07-30T03:53:21;95259.47;;;16.93
30001;BMP280;16845;48.670;9.000;2023-07-30T03:55:49;95258.19;;;16.86
30001;BMP280;16845;48.670;9.000;2023-07-30T03:58:16;95262.66;;;16.96
30001;BMP280;16845;48.670;9.000;2023-07-30T04:00:42;95252.97;;;16.89
30001;BMP280;16845;48.670;9.000;2023-07-30T04:03:09;95248.69;;;16.89
30001;BMP280;16845;48.670;9.000;2023-07-30T04:05:36;95253.94;;;16.86
30001;BMP280;16845;48.670;9.000;2023-07-30T04:08:02;95252.31;;;16.85
30001;BMP280;16845;48.670;9.000;2023-07-30T04:10:29;95260.81;;;16.84
30001;BMP280;16845;48.670;9.000;2023-07-30T04:12:57;95256.41;;;16.88
30001;BMP280;16845;48.670;9.000;2023-07-30T04:15:23;95251.47;;;16.85
30001;BMP280;16845;48.670;9.000;2023-07-30T04:17:50;95252.44;;;16.98
30001;BMP280;16845;48.670;9.000;2023-07-30T04:20:16;95262.38;;;16.87
30001;BMP280;16845;48.670;9.000;2023-07-30T04:22:43;95259.00;;;16.86
30001;BMP280;16845;48.670;9.000;2023-07-30T04:25:10;95269.97;;;16.87
30001;BMP280;16845;48.670;9.000;2023-07-30T04:27:36;95265.69;;;16.87
30001;BMP280;16845;48.670;9.000;2023-07-30T04:30:06;95274.94;;;16.88
30001;BMP280;16845;48.670;9.000;2023-07-30T04:32:32;95274.22;;;16.86
30001;BMP280;16845;48.670;9.000;2023-07-30T04:34:59;95279.00;;;16.91
30001;BMP280;16845;48.670;9.000;2023-07-30T04:37:26;95275.31;;;16.96
30001;BMP280;16845;48.670;9.000;2023-07-30T04:39:52;95283.38;;;17.03
30001;BMP280;16845;48.670;9.000;2023-07-30T04:42:18;95278.38;;;17.01
30001;BMP280;16845;48.670;9.000;2023-07-30T04:44:45;95279.22;;;17.02
30001;BMP280;16845;48.670;9.000;2023-07-30T04:47:13;95278.75;;;16.95
30001;BMP280;16845;48.670;9.000;2023-07-30T04:49:39;95276.47;;;16.91
30001;BMP280;16845;48.670;9.000;2023-07-30T04:52:06;95283.81;;;16.95
30001;BMP280;16845;48.670;9.000;2023-07-30T04:54:33;95277.84;;;16.96
30001;BMP280;16845;48.670;9.000;2023-07-30T04:56:59;95284.09;;;16.91
30001;BMP280;16845;48.670;9.000;2023-07-30T04:59:26;95287.53;;;17.04
30001;BMP280;16845;48.670;9.000;2023-07-30T05:01:52;95293.97;;;17.09
30001;BMP280;16845;48.670;9.000;2023-07-30T05:04:20;95296.53;;;17.09
30001;BMP280;16845;48.670;9.000;2023-07-30T05:06:47;95302.41;;;17.10
30001;BMP280;16845;48.670;9.000;2023-07-30T05:09:13;95303.72;;;17.01
30001;BMP280;16845;48.670;9.000;2023-07-30T05:11:40;95318.78;;;17.04
30001;BMP280;16845;48.670;9.000;2023-07-30T05:14:06;95314.97;;;17.11
30001;BMP280;16845;48.670;9.000;2023-07-30T05:16:33;95313.03;;;17.30
30001;BMP280;16845;48.670;9.000;2023-07-30T05:18:59;95311.38;;;17.15
30001;BMP280;16845;48.670;9.000;2023-07-30T05:21:27;95305.69;;;17.12
30001;BMP280;16845;48.670;9.000;2023-07-30T05:23:54;95308.09;;;17.13
30001;BMP280;16845;48.670;9.000;2023-07-30T05:26:20;95306.19;;;17.03
30001;BMP280;16845;48.670;9.000;2023-07-30T05:28:47;95303.72;;;17.01
30001;BMP280;16845;48.670;9.000;2023-07-30T05:31:13;95308.47;;;17.07
30001;BMP280;16845;48.670;9.000;2023-07-30T05:33:40;95305.69;;;17.12
30001;BMP280;16845;48.670;9.000;2023-07-30T05:36:06;95311.19;;;17.04
30001;BMP280;16845;48.670;9.000;2023-07-30T05:38:34;95311.72;;;17.09
30001;BMP280;16845;48.670;9.000;2023-07-30T05:41:00;95310.63;;;17.13
30001;BMP280;16845;48.670;9.000;2023-07-30T05:43:27;95313.47;;;17.09
30001;BMP280;16845;48.670;9.000;2023-07-30T05:45:53;95308.94;;;17.28
30001;BMP280;16845;48.670;9.000;2023-07-30T05:48:20;95307.41;;;17.25
30001;BMP280;16845;48.670;9.000;2023-07-30T05:50:46;95308.28;;;17.10
30001;BMP280;16845;48.670;9.000;2023-07-30T05:53:13;95305.03;;;17.22
30001;BMP280;16845;48.670;9.000;2023-07-30T05:55:41;95306.22;;;17.17
30001;BMP280;16845;48.670;9.000;2023-07-30T05:58:08;95306.13;;;17.04
30001;BMP280;16845;48.670;9.000;2023-07-30T06:00:34;95303.22;;;17.10
30001;BMP280;16845;48.670;9.000;2023-07-30T06:03:01;95305.03;;;17.08
30001;BMP280;16845;48.670;9.000;2023-07-30T06:05:28;95307.94;;;17.16
30001;BMP280;16845;48.670;9.000;2023-07-30T06:07:54;95317.91;;;17.33
30001;BMP280;16845;48.670;9.000;2023-07-30T06:10:21;95310.19;;;17.50
30001;BMP280;16845;48.670;9.000;2023-07-30T06:12:48;95316.88;;;17.37
30001;BMP280;16845;48.670;9.000;2023-07-30T06:15:15;95295.94;;;17.34
30001;BMP280;16845;48.670;9.000;2023-07-30T06:17:41;95292.97;;;17.55
30001;BMP280;16845;48.670;9.000;2023-07-30T06:20:09;95294.06;;;17.65
30001;BMP280;16845;48.670;9.000;2023-07-30T06:22:35;95292.16;;;17.83
30001;BMP280;16845;48.670;9.000;2023-07-30T06:25:02;95304.72;;;17.98
30001;BMP280;16845;48.670;9.000;2023-07-30T06:27:29;95304.72;;;17.98
30001;BMP280;16845;48.670;9.000;2023-07-30T06:29:57;95312.97;;;17.88
30001;BMP280;16845;48.670;9.000;2023-07-30T06:32:23;95312.31;;;18.12
30001;BMP280;16845;48.670;9.000;2023-07-30T06:34:50;95312.53;;;18.50
30001;BMP280;16845;48.670;9.000;2023-07-30T06:37:17;95314.16;;;18.90
30001;BMP280;16845;48.670;9.000;2023-07-30T06:39:43;95303.94;;;19.16
30001;BMP280;16845;48.670;9.000;2023-07-30T06:42:10;95304.72;;;19.68
30001;BMP280;16845;48.670;9.000;2023-07-30T06:44:36;95310.69;;;19.92
30001;BMP280;16845;48.670;9.000;2023-07-30T06:47:04;95318.06;;;19.71
30001;BMP280;16845;48.670;9.000;2023-07-30T06:49:31;95323.34;;;19.31
30001;BMP280;16845;48.670;9.000;2023-07-30T06:51:57;95337.22;;;19.13
30001;BMP280;16845;48.670;9.000;2023-07-30T06:54:24;95336.88;;;18.93
30001;BMP280;16845;48.670;9.000;2023-07-30T06:56:50;95344.16;;;18.85
30001;BMP280;16845;48.670;9.000;2023-07-30T06:59:17;95348.09;;;18.76
30001;BMP280;16845;48.670;9.000;2023-07-30T07:01:43;95344.50;;;18.66
30001;BMP280;16845;48.670;9.000;2023-07-30T07:04:11;95349.47;;;18.68
30001;BMP280;16845;48.670;9.000;2023-07-30T07:06:38;95343.88;;;18.63
30001;BMP280;16845;48.670;9.000;2023-07-30T07:09:04;95354.88;;;18.63
30001;BMP280;16845;48.670;9.000;2023-07-30T07:11:31;95359.56;;;18.29
30001;BMP280;16845;48.670;9.000;2023-07-30T07:13:57;95367.78;;;18.04
30001;BMP280;16845;48.670;9.000;2023-07-30T07:16:24;95384.94;;;17.73
30001;BMP280;16845;48.670;9.000;2023-07-30T07:18:50;95383.31;;;17.72
30001;BMP280;16845;48.670;9.000;2023-07-30T07:21:18;95380.22;;;17.67
30001;BMP280;16845;48.670;9.000;2023-07-30T07:23:45;95374.69;;;17.60
30001;BMP280;16845;48.670;9.000;2023-07-30T07:26:11;95375.69;;;17.72
30001;BMP280;16845;48.670;9.000;2023-07-30T07:28:38;95368.25;;;17.97
30001;BMP280;16845;48.670;9.000;2023-07-30T07:31:04;95384.50;;;17.94
30001;BMP280;16845;48.670;9.000;2023-07-30T07:33:31;95391.03;;;17.98
30001;BMP280;16845;48.670;9.000;2023-07-30T07:36:02;95391.03;;;17.84
30001;BMP280;16845;48.670;9.000;2023-07-30T07:38:31;95391.47;;;18.05
30001;BMP280;16845;48.670;9.000;2023-07-30T07:40:57;95392.56;;;18.15
30001;BMP280;16845;48.670;9.000;2023-07-30T07:43:24;95393.84;;;17.94
30001;BMP280;16845;48.670;9.000;2023-07-30T07:45:50;95385.03;;;17.99
30001;BMP280;16845;48.670;9.000;2023-07-30T07:48:17;95388.41;;;18.00
30001;BMP280;16845;48.670;9.000;2023-07-30T07:50:44;95377.78;;;17.93
30001;BMP280;16845;48.670;9.000;2023-07-30T07:53:11;95384.75;;;18.18
30001;BMP280;16845;48.670;9.000;2023-07-30T07:55:38;95382.94;;;18.34
30001;BMP280;16845;48.670;9.000;2023-07-30T07:58:05;95380.94;;;18.39
30001;BMP280;16845;48.670;9.000;2023-07-30T08:00:31;95373.97;;;18.42
30001;BMP280;16845;48.670;9.000;2023-07-30T08:02:58;95382.47;;;18.55
30001;BMP280;16845;48.670;9.000;2023-07-30T08:05:24;95379.53;;;18.61
30001;BMP280;16845;48.670;9.000;2023-07-30T08:07:51;95390.53;;;18.88
30001;BMP280;16845;48.670;9.000;2023-07-30T08:10:18;95381.63;;;19.34
30001;BMP280;16845;48.670;9.000;2023-07-30T08:12:46;95377.91;;;20.27
30001;BMP280;16845;48.670;9.000;2023-07-30T08:15:13;95370.75;;;21.04
30001;BMP280;16845;48.670;9.000;2023-07-30T08:17:39;95372.06;;;21.55
30001;BMP280;16845;48.670;9.000;2023-07-30T08:20:07;95364.16;;;22.14
30001;BMP280;16845;48.670;9.000;2023-07-30T08:22:33;95377.09;;;22.88
30001;BMP280;16845;48.670;9.000;2023-07-30T08:25:00;95369.50;;;22.55
30001;BMP280;16845;48.670;9.000;2023-07-30T08:27:26;95362.78;;;22.43
30001;BMP280;16845;48.670;9.000;2023-07-30T08:29:54;95351.97;;;21.95
30001;BMP280;16845;48.670;9.000;2023-07-30T08:32:21;95359.06;;;21.47
30001;BMP280;16845;48.670;9.000;2023-07-30T08:34:47;95352.53;;;21.43
30001;BMP280;16845;48.670;9.000;2023-07-30T08:37:14;95352.31;;;21.57
30001;BMP280;16845;48.670;9.000;2023-07-30T08:39:40;95354.31;;;21.19
30001;BMP280;16845;48.670;9.000;2023-07-30T08:42:07;95356.50;;;20.89
30001;BMP280;16845;48.670;9.000;2023-07-30T08:44:34;95363.41;;;21.34
30001;BMP280;16845;48.670;9.000;2023-07-30T08:47:02;95357.38;;;21.35
30001;BMP280;16845;48.670;9.000;2023-07-30T08:49:30;95359.94;;;21.35
30001;BMP280;16845;48.670;9.000;2023-07-30T08:51:57;95360.28;;;20.60
30001;BMP280;16845;48.670;9.000;2023-07-30T08:54:23;95368.94;;;20.93
30001;BMP280;16845;48.670;9.000;2023-07-30T08:56:51;95360.88;;;21.68
30001;BMP280;16845;48.670;9.000;2023-07-30T08:59:18;95372.34;;;21.39
30001;BMP280;16845;48.670;9.000;2023-07-30T09:01:47;95375.19;;;21.13
30001;BMP280;16845;48.670;9.000;2023-07-30T09:04:17;95368.94;;;21.17
30001;BMP280;16845;48.670;9.000;2023-07-30T09:06:47;95373.84;;;20.84
30001;BMP280;16845;48.670;9.000;2023-07-30T09:09:17;95383.16;;;20.49
30001;BMP280;16845;48.670;9.000;2023-07-30T09:11:50;95369.03;;;20.20
30001;BMP280;16845;48.670;9.000;2023-07-30T09:14:19;95381.81;;;20.07
30001;BMP280;16845;48.670;9.000;2023-07-30T09:16:45;95388.78;;;19.54
30001;BMP280;16845;48.670;9.000;2023-07-30T09:19:17;95386.84;;;19.45
30001;BMP280;16845;48.670;9.000;2023-07-30T09:21:43;95392.84;;;19.44
30001;BMP280;16845;48.670;9.000;2023-07-30T09:24:10;95399.56;;;19.45
30001;BMP280;16845;48.670;9.000;2023-07-30T09:26:42;95398.44;;;19.49
30001;BMP280;16845;48.670;9.000;2023-07-30T09:29:09;95416.91;;;19.26
30001;BMP280;16845;48.670;9.000;2023-07-30T09:31:49;95419.69;;;19.09
30001;BMP280;16845;48.670;9.000;2023-07-30T09:34:18;95418.66;;;19.11
30001;BMP280;16845;48.670;9.000;2023-07-30T09:36:45;95417.88;;;19.11
30001;BMP280;16845;48.670;9.000;2023-07-30T09:39:15;95411.81;;;19.26
30001;BMP280;16845;48.670;9.000;2023-07-30T09:41:42;95409.97;;;19.67
30001;BMP280;16845;48.670;9.000;2023-07-30T09:44:08;95406.75;;;20.15
30001;BMP280;16845;48.670;9.000;2023-07-30T09:46:41;95413.44;;;20.41
30001;BMP280;16845;48.670;9.000;2023-07-30T09:49:08;95410.59;;;20.33
30001;BMP280;16845;48.670;9.000;2023-07-30T09:51:37;95414.34;;;20.40
30001;BMP280;16845;48.670;9.000;2023-07-30T09:54:05;95412.00;;;20.37
30001;BMP280;16845;48.670;9.000;2023-07-30T09:56:32;95420.75;;;20.58
30001;BMP280;16845;48.670;9.000;2023-07-30T09:58:58;95418.63;;;21.35
30001;BMP280;16845;48.670;9.000;2023-07-30T10:01:26;95423.91;;;23.21
30001;BMP280;16845;48.670;9.000;2023-07-30T10:03:56;95401.13;;;24.11
30001;BMP280;16845;48.670;9.000;2023-07-30T10:06:23;95409.50;;;25.22
30001;BMP280;16845;48.670;9.000;2023-07-30T10:08:56;95408.81;;;25.96
30001;BMP280;16845;48.670;9.000;2023-07-30T10:11:24;95401.97;;;27.75
30001;BMP280;16845;48.670;9.000;2023-07-30T10:13:51;95406.44;;;29.09
30001;BMP280;16845;48.670;9.000;2023-07-30T10:16:21;95398.19;;;28.97
30001;BMP280;16845;48.670;9.000;2023-07-30T10:18:55;95398.19;;;29.70
30001;BMP280;16845;48.670;9.000;2023-07-30T10:21:23;95396.88;;;27.48
30001;BMP280;16845;48.670;9.000;2023-07-30T10:23:59;95399.63;;;28.33
30001;BMP280;16845;48.670;9.000;2023-07-30T10:26:29;95392.06;;;27.88
30001;BMP280;16845;48.670;9.000;2023-07-30T10:29:10;95406.22;;;25.96
30001;BMP280;16845;48.670;9.000;2023-07-30T10:31:40;95399.34;;;25.68
30001;BMP280;16845;48.670;9.000;2023-07-30T10:34:07;95411.72;;;25.06
30001;BMP280;16845;48.670;9.000;2023-07-30T10:36:40;95406.66;;;24.46
30001;BMP280;16845;48.670;9.000;2023-07-30T10:39:13;95423.44;;;24.00
30001;BMP280;16845;48.670;9.000;2023-07-30T10:41:39;95410.31;;;24.73
30001;BMP280;16845;48.670;9.000;2023-07-30T10:44:17;95403.03;;;25.56
30001;BMP280;16845;48.670;9.000;2023-07-30T10:46:44;95409.16;;;27.19
30001;BMP280;16845;48.670;9.000;2023-07-30T10:49:11;95404.59;;;28.09
30001;BMP280;16845;48.670;9.000;2023-07-30T10:51:37;95395.75;;;30.01
30001;BMP280;16845;48.670;9.000;2023-07-30T10:54:06;95409.34;;;28.72
30001;BMP280;16845;48.670;9.000;2023-07-30T10:56:35;95391.53;;;30.86
30001;BMP280;16845;48.670;9.000;2023-07-30T10:59:04;95389.00;;;31.70
30001;BMP280;16845;48.670;9.000;2023-07-30T11:01:30;95387.66;;;30.20
30001;BMP280;16845;48.670;9.000;2023-07-30T11:03:57;95407.59;;;28.39
30001;BMP280;16845;48.670;9.000;2023-07-30T11:06:25;95389.19;;;28.68
30001;BMP280;16845;48.670;9.000;2023-07-30T11:08:52;95403.41;;;27.95
30001;BMP280;16845;48.670;9.000;2023-07-30T11:11:18;95402.19;;;28.07
30001;BMP280;16845;48.670;9.000;2023-07-30T11:13:47;95393.50;;;30.06
30001;BMP280;16845;48.670;9.000;2023-07-30T11:16:14;95393.47;;;29.58
30001;BMP280;16845;48.670;9.000;2023-07-30T11:18:42;95388.59;;;30.89
30001;BMP280;16845;48.670;9.000;2023-07-30T11:21:10;95384.22;;;32.33
30001;BMP280;16845;48.670;9.000;2023-07-30T11:23:38;95384.06;;;31.22
30001;BMP280;16845;48.670;9.000;2023-07-30T11:26:06;95382.47;;;31.21
30001;BMP280;16845;48.670;9.000;2023-07-30T11:28:34;95376.34;;;30.21
30001;BMP280;16845;48.670;9.000;2023-07-30T11:31:07;95387.41;;;32.71
30001;BMP280;16845;48.670;9.000;2023-07-30T11:33:35;95390.06;;;32.63
30001;BMP280;16845;48.670;9.000;2023-07-30T11:36:02;95397.53;;;30.08
30001;BMP280;16845;48.670;9.000;2023-07-30T11:38:30;95395.13;;;28.68
30001;BMP280;16845;48.670;9.000;2023-07-30T11:40:57;95385.25;;;31.42
30001;BMP280;16845;48.670;9.000;2023-07-30T11:43:23;95385.41;;;31.18
30001;BMP280;16845;48.670;9.000;2023-07-30T11:46:09;95387.91;;;30.49
30001;BMP280;16845;48.670;9.000;2023-07-30T11:48:36;95385.34;;;30.95
30001;BMP280;16845;48.670;9.000;2023-07-30T11:51:03;95392.88;;;31.88
30001;BMP280;16845;48.670;9.000;2023-07-30T11:53:46;95396.19;;;31.52
30001;BMP280;16845;48.670;9.000;2023-07-30T11:56:17;95416.91;;;29.49
30001;BMP280;16845;48.670;9.000;2023-07-30T11:58:43;95405.88;;;30.42
30001;BMP280;16845;48.670;9.000;2023-07-30T12:01:11;95415.63;;;29.61
30001;BMP280;16845;48.670;9.000;2023-07-30T12:03:38;95400.44;;;32.12
30001;BMP280;16845;48.670;9.000;2023-07-30T12:06:05;95415.50;;;31.80
30001;BMP280;16845;48.670;9.000;2023-07-30T12:08:34;95407.78;;;32.60
30001;BMP280;16845;48.670;9.000;2023-07-30T12:11:02;95392.78;;;31.82
30001;BMP280;16845;48.670;9.000;2023-07-30T12:13:29;95403.44;;;31.34
30001;BMP280;16845;48.670;9.000;2023-07-30T12:15:56;95407.81;;;29.37
30001;BMP280;16845;48.670;9.000;2023-07-30T12:18:25;95418.13;;;27.15
30001;BMP280;16845;48.670;9.000;2023-07-30T12:20:53;95434.03;;;25.15
30001;BMP280;16845;48.670;9.000;2023-07-30T12:23:20;95434.94;;;24.05
30001;BMP280;16845;48.670;9.000;2023-07-30T12:25:46;95438.94;;;23.46
30001;BMP280;16845;48.670;9.000;2023-07-30T12:28:13;95433.19;;;24.35
30001;BMP280;16845;48.670;9.000;2023-07-30T12:30:40;95424.91;;;25.60
30001;BMP280;16845;48.670;9.000;2023-07-30T12:33:06;95425.13;;;27.23
30001;BMP280;16845;48.670;9.000;2023-07-30T12:35:34;95417.34;;;28.10
30001;BMP280;16845;48.670;9.000;2023-07-30T12:38:00;95422.97;;;27.18
30001;BMP280;16845;48.670;9.000;2023-07-30T12:40:27;95429.22;;;25.59
30001;BMP280;16845;48.670;9.000;2023-07-30T12:42:53;95431.69;;;24.93
30001;BMP280;16845;48.670;9.000;2023-07-30T12:45:20;95436.78;;;24.23
30001;BMP280;16845;48.670;9.000;2023-07-30T12:47:46;95436.47;;;24.17
30001;BMP280;16845;48.670;9.000;2023-07-30T12:50:13;95447.03;;;23.20
30001;BMP280;16845;48.670;9.000;2023-07-30T12:52:41;95439.69;;;22.51
30001;BMP280;16845;48.670;9.000;2023-07-30T12:55:08;95452.75;;;25.36
30001;BMP280;16845;48.670;9.000;2023-07-30T12:57:34;95438.94;;;26.13
30001;BMP280;16845;48.670;9.000;2023-07-30T13:00:01;95449.63;;;26.18
30001;BMP280;16845;48.670;9.000;2023-07-30T13:02:27;95420.19;;;27.12
30001;BMP280;16845;48.670;9.000;2023-07-30T13:04:54;95442.88;;;27.43
30001;BMP280;16845;48.670;9.000;2023-07-30T13:07:20;95447.44;;;29.85
30001;BMP280;16845;48.670;9.000;2023-07-30T13:10:02;95439.09;;;31.85
30001;BMP280;16845;48.670;9.000;2023-07-30T13:12:28;95436.75;;;34.28
30001;BMP280;16845;48.670;9.000;2023-07-30T13:14:55;95426.16;;;33.87
30001;BMP280;16845;48.670;9.000;2023-07-30T13:17:21;95433.53;;;30.50
30001;BMP280;16845;48.670;9.000;2023-07-30T13:19:48;95443.19;;;26.87
30001;BMP280;16845;48.670;9.000;2023-07-30T13:22:14;95457.75;;;25.47
30001;BMP280;16845;48.670;9.000;2023-07-30T13:24:41;95465.53;;;26.50
30001;BMP280;16845;48.670;9.000;2023-07-30T13:27:09;95475.84;;;26.31
30001;BMP280;16845;48.670;9.000;2023-07-30T13:29:35;95448.47;;;27.91
30001;BMP280;16845;48.670;9.000;2023-07-30T13:32:02;95440.06;;;26.56
30001;BMP280;16845;48.670;9.000;2023-07-30T13:34:29;95457.59;;;28.03
30001;BMP280;16845;48.670;9.000;2023-07-30T13:36:55;95442.91;;;30.51
30001;BMP280;16845;48.670;9.000;2023-07-30T13:39:22;95445.16;;;31.16
30001;BMP280;16845;48.670;9.000;2023-07-30T13:41:48;95435.56;;;30.86
30001;BMP280;16845;48.670;9.000;2023-07-30T13:44:16;95439.50;;;30.66
30001;BMP280;16845;48.670;9.000;2023-07-30T13:46:42;95446.63;;;28.44
30001;BMP280;16845;48.670;9.000;2023-07-30T13:49:09;95454.97;;;27.60
30001;BMP280;16845;48.670;9.000;2023-07-30T13:51:36;95457.47;;;25.50
30001;BMP280;16845;48.670;9.000;2023-07-30T13:54:03;95466.16;;;25.68
30001;BMP280;16845;48.670;9.000;2023-07-30T13:56:29;95462.59;;;26.16
30001;BMP280;16845;48.670;9.000;2023-07-30T13:58:56;95464.19;;;27.18
30001;BMP280;16845;48.670;9.000;2023-07-30T14:01:24;95449.22;;;27.84
30001;BMP280;16845;48.670;9.000;2023-07-30T14:03:50;95474.88;;;27.58
30001;BMP280;16845;48.670;9.000;2023-07-30T14:06:17;95462.16;;;27.12
30001;BMP280;16845;48.670;9.000;2023-07-30T14:08:44;95460.28;;;27.76